sensor_id;sensor_type;location;lat;lon;timestamp;P1;durP1;ratioP1;P2;durP2;ratioP2
36279;SDS011;22317;47.936;12.742;2022-08-19T00:00:33;8.20;;;7.55;;
36279;SDS011;22317;47.936;12.742;2022-08-19T00:03:01;9.05;;;8.35;;
36279;SDS011;22317;47.936;12.742;2022-08-19T00:05:27;8.88;;;8.18;;
36279;SDS011;22317;47.936;12.742;2022-08-19T00:07:53;8.27;;;7.68;;
36279;SDS011;22317;47.936;12.742;2022-08-19T00:10:19;8.57;;;7.95;;
36279;SDS011;22317;47.936;12.742;2022-08-19T00:12:45;8.90;;;8.20;;
36279;SDS011;22317;47.936;12.742;2022-08-19T00:15:13;8.60;;;7.90;;
36279;SDS011;22317;47.936;12.742;2022-08-19T00:17:41;8.57;;;7.88;;
36279;SDS011;22317;47.936;12.742;2022-08-19T00:20:09;8.07;;;7.50;;
36279;SDS011;22317;47.936;12.742;2022-08-19T00:22:38;8.88;;;8.18;;
36279;SDS011;22317;47.936;12.742;2022-08-19T00:25:06;8.70;;;8.13;;
36279;SDS011;22317;47.936;12.742;2022-08-19T00:27:32;8.57;;;7.82;;
36279;SDS011;22317;47.936;12.742;2022-08-19T00:29:58;9.02;;;8.13;;
36279;SDS011;22317;47.936;12.742;2022-08-19T00:32:25;8.77;;;8.18;;
36279;SDS011;22317;47.936;12.742;2022-08-19T00:34:51;8.80;;;7.97;;
36279;SDS011;22317;47.936;12.742;2022-08-19T00:37:18;8.95;;;8.27;;
36279;SDS011;22317;47.936;12.742;2022-08-19T00:39:45;9.52;;;8.75;;
36279;SDS011;22317;47.936;12.742;2022-08-19T00:42:11;8.82;;;8.23;;
36279;SDS011;22317;47.936;12.742;2022-08-19T00:44:40;9.48;;;8.77;;
36279;SDS011;22317;47.936;12.742;2022-08-19T00:47:07;9.90;;;9.20;;
36279;SDS011;22317;47.936;12.742;2022-08-19T00:49:40;9.50;;;8.80;;
36279;SDS011;22317;47.936;12.742;2022-08-19T00:52:15;9.25;;;8.52;;
36279;SDS011;22317;47.936;12.742;2022-08-19T00:54:44;10.07;;;9.27;;
36279;SDS011;22317;47.936;12.742;2022-08-19T00:57:14;9.15;;;8.40;;
36279;SDS011;22317;47.936;12.742;2022-08-19T00:59:45;9.13;;;8.43;;
36279;SDS011;22317;47.936;12.742;2022-08-19T01:02:13;9.75;;;8.95;;
36279;SDS011;22317;47.936;12.742;2022-08-19T01:04:40;9.60;;;8.73;;
36279;SDS011;22317;47.936;12.742;2022-08-19T01:07:06;8.57;;;7.88;;
36279;SDS011;22317;47.936;12.742;2022-08-19T01:09:32;9.27;;;8.57;;
36279;SDS011;22317;47.936;12.742;2022-08-19T01:11:59;8.82;;;8.20;;
36279;SDS011;22317;47.936;12.742;2022-08-19T01:14:25;9.07;;;8.30;;
36279;SDS011;22317;47.936;12.742;2022-08-19T01:16:51;8.65;;;7.95;;
36279;SDS011;22317;47.936;12.742;2022-08-19T01:22:01;7.90;;;7.40;;
36279;SDS011;22317;47.936;12.742;2022-08-19T01:24:30;8.07;;;7.47;;
36279;SDS011;22317;47.936;12.742;2022-08-19T01:26:57;7.72;;;7.07;;
36279;SDS011;22317;47.936;12.742;2022-08-19T01:29:23;8.27;;;7.45;;
36279;SDS011;22317;47.936;12.742;2022-08-19T01:31:48;8.30;;;7.70;;
36279;SDS011;22317;47.936;12.742;2022-08-19T01:34:17;7.60;;;7.10;;
36279;SDS011;22317;47.936;12.742;2022-08-19T01:36:45;8.30;;;7.68;;
36279;SDS011;22317;47.936;12.742;2022-08-19T01:39:20;7.85;;;7.30;;
36279;SDS011;22317;47.936;12.742;2022-08-19T01:41:50;8.13;;;7.53;;
36279;SDS011;22317;47.936;12.742;2022-08-19T01:44:19;8.35;;;7.65;;
36279;SDS011;22317;47.936;12.742;2022-08-19T01:46:48;8.35;;;7.63;;
36279;SDS011;22317;47.936;12.742;2022-08-19T01:49:16;7.85;;;7.25;;
36279;SDS011;22317;47.936;12.742;2022-08-19T01:51:43;7.68;;;7.00;;
36279;SDS011;22317;47.936;12.742;2022-08-19T01:54:10;7.45;;;6.95;;
36279;SDS011;22317;47.936;12.742;2022-08-19T01:56:38;7.53;;;7.03;;
36279;SDS011;22317;47.936;12.742;2022-08-19T01:59:05;7.13;;;6.60;;
36279;SDS011;22317;47.936;12.742;2022-08-19T02:01:35;7.43;;;6.82;;
36279;SDS011;22317;47.936;12.742;2022-08-19T02:04:01;6.85;;;6.43;;
36279;SDS011;22317;47.936;12.742;2022-08-19T02:06:27;6.97;;;6.38;;
36279;SDS011;22317;47.936;12.742;2022-08-19T02:08:54;6.57;;;6.13;;
36279;SDS011;22317;47.936;12.742;2022-08-19T02:11:22;6.93;;;6.32;;
36279;SDS011;22317;47.936;12.742;2022-08-19T02:13:59;6.78;;;6.35;;
36279;SDS011;22317;47.936;12.742;2022-08-19T02:16:29;6.82;;;6.30;;
36279;SDS011;22317;47.936;12.742;2022-08-19T02:18:56;6.90;;;6.30;;
36279;SDS011;22317;47.936;12.742;2022-08-19T02:21:22;6.50;;;6.10;;
36279;SDS011;22317;47.936;12.742;2022-08-19T02:23:49;6.70;;;6.10;;
36279;SDS011;22317;47.936;12.742;2022-08-19T02:26:15;6.47;;;6.07;;
36279;SDS011;22317;47.936;12.742;2022-08-19T02:28:42;5.90;;;5.50;;
36279;SDS011;22317;47.936;12.742;2022-08-19T02:31:09;6.22;;;5.70;;
36279;SDS011;22317;47.936;12.742;2022-08-19T02:33:35;6.30;;;5.68;;
36279;SDS011;22317;47.936;12.742;2022-08-19T02:36:03;6.25;;;5.68;;
36279;SDS011;22317;47.936;12.742;2022-08-19T02:38:30;6.03;;;5.63;;
36279;SDS011;22317;47.936;12.742;2022-08-19T02:40:58;5.50;;;5.20;;
36279;SDS011;22317;47.936;12.742;2022-08-19T02:43:26;6.00;;;5.60;;
36279;SDS011;22317;47.936;12.742;2022-08-19T02:45:53;6.03;;;5.63;;
36279;SDS011;22317;47.936;12.742;2022-08-19T02:48:19;5.50;;;5.10;;
36279;SDS011;22317;47.936;12.742;2022-08-19T02:50:47;5.90;;;5.45;;
36279;SDS011;22317;47.936;12.742;2022-08-19T02:53:15;5.45;;;5.15;;
36279;SDS011;22317;47.936;12.742;2022-08-19T02:55:42;5.85;;;5.30;;
36279;SDS011;22317;47.936;12.742;2022-08-19T02:58:10;5.40;;;5.00;;
36279;SDS011;22317;47.936;12.742;2022-08-19T03:00:40;5.70;;;5.20;;
36279;SDS011;22317;47.936;12.742;2022-08-19T03:03:07;5.05;;;4.65;;
36279;SDS011;22317;47.936;12.742;2022-08-19T03:05:33;5.00;;;4.70;;
36279;SDS011;22317;47.936;12.742;2022-08-19T03:07:59;5.20;;;4.90;;
36279;SDS011;22317;47.936;12.742;2022-08-19T03:10:24;5.22;;;4.72;;
36279;SDS011;22317;47.936;12.742;2022-08-19T03:12:50;4.70;;;4.47;;
36279;SDS011;22317;47.936;12.742;2022-08-19T03:15:16;4.75;;;4.20;;
36279;SDS011;22317;47.936;12.742;2022-08-19T03:17:42;4.85;;;4.55;;
36279;SDS011;22317;47.936;12.742;2022-08-19T03:20:08;4.45;;;4.05;;
36279;SDS011;22317;47.936;12.742;2022-08-19T03:22:34;4.18;;;3.97;;
36279;SDS011;22317;47.936;12.742;2022-08-19T03:24:59;3.78;;;3.58;;
36279;SDS011;22317;47.936;12.742;2022-08-19T03:27:25;4.25;;;3.88;;
36279;SDS011;22317;47.936;12.742;2022-08-19T03:29:52;4.15;;;3.95;;
36279;SDS011;22317;47.936;12.742;2022-08-19T03:32:17;4.05;;;3.83;;
36279;SDS011;22317;47.936;12.742;2022-08-19T03:34:43;4.50;;;4.20;;
36279;SDS011;22317;47.936;12.742;2022-08-19T03:37:10;4.18;;;3.80;;
36279;SDS011;22317;47.936;12.742;2022-08-19T03:39:39;4.20;;;3.80;;
36279;SDS011;22317;47.936;12.742;2022-08-19T03:42:07;3.92;;;3.63;;
36279;SDS011;22317;47.936;12.742;2022-08-19T03:44:33;3.88;;;3.67;;
36279;SDS011;22317;47.936;12.742;2022-08-19T03:47:02;3.80;;;3.50;;
36279;SDS011;22317;47.936;12.742;2022-08-19T03:49:29;4.22;;;3.92;;
36279;SDS011;22317;47.936;12.742;2022-08-19T03:51:58;4.55;;;3.63;;
36279;SDS011;22317;47.936;12.742;2022-08-19T03:54:25;5.60;;;3.67;;
36279;SDS011;22317;47.936;12.742;2022-08-19T03:56:53;3.88;;;3.58;;
36279;SDS011;22317;47.936;12.742;2022-08-19T03:59:27;3.90;;;3.60;;
36279;SDS011;22317;47.936;12.742;2022-08-19T04:01:57;3.70;;;3.50;;
36279;SDS011;22317;47.936;12.742;2022-08-19T04:04:25;3.75;;;3.40;;
36279;SDS011;22317;47.936;12.742;2022-08-19T04:06:52;3.65;;;3.35;;
36279;SDS011;22317;47.936;12.742;2022-08-19T04:09:18;3.30;;;3.03;;
36279;SDS011;22317;47.936;12.742;2022-08-19T04:11:46;3.20;;;3.00;;
36279;SDS011;22317;47.936;12.742;2022-08-19T04:14:21;3.30;;;3.10;;
36279;SDS011;22317;47.936;12.742;2022-08-19T04:16:50;3.78;;;3.55;;
36279;SDS011;22317;47.936;12.742;2022-08-19T04:19:17;3.30;;;3.10;;
36279;SDS011;22317;47.936;12.742;2022-08-19T04:21:44;3.72;;;3.30;;
36279;SDS011;22317;47.936;12.742;2022-08-19T04:24:12;3.95;;;3.35;;
36279;SDS011;22317;47.936;12.742;2022-08-19T04:26:38;3.53;;;3.33;;
36279;SDS011;22317;47.936;12.742;2022-08-19T04:29:06;3.70;;;3.50;;
36279;SDS011;22317;47.936;12.742;2022-08-19T04:31:34;3.80;;;3.60;;
36279;SDS011;22317;47.936;12.742;2022-08-19T04:34:01;5.72;;;3.40;;
36279;SDS011;22317;47.936;12.742;2022-08-19T04:36:34;3.85;;;3.63;;
36279;SDS011;22317;47.936;12.742;2022-08-19T04:39:03;3.13;;;2.97;;
36279;SDS011;22317;47.936;12.742;2022-08-19T04:41:32;3.60;;;3.40;;
36279;SDS011;22317;47.936;12.742;2022-08-19T04:44:17;4.00;;;3.70;;
36279;SDS011;22317;47.936;12.742;2022-08-19T04:46:43;3.72;;;3.38;;
36279;SDS011;22317;47.936;12.742;2022-08-19T04:49:10;4.10;;;3.80;;
36279;SDS011;22317;47.936;12.742;2022-08-19T04:51:36;3.72;;;3.53;;
36279;SDS011;22317;47.936;12.742;2022-08-19T04:54:05;3.75;;;3.55;;
36279;SDS011;22317;47.936;12.742;2022-08-19T04:56:33;4.35;;;4.05;;
36279;SDS011;22317;47.936;12.742;2022-08-19T04:58:59;5.20;;;4.30;;
36279;SDS011;22317;47.936;12.742;2022-08-19T05:01:29;4.57;;;4.28;;
36279;SDS011;22317;47.936;12.742;2022-08-19T05:04:01;4.80;;;4.43;;
36279;SDS011;22317;47.936;12.742;2022-08-19T05:06:29;4.63;;;4.35;;
36279;SDS011;22317;47.936;12.742;2022-08-19T05:08:58;5.35;;;4.95;;
36279;SDS011;22317;47.936;12.742;2022-08-19T05:11:25;4.35;;;4.07;;
36279;SDS011;22317;47.936;12.742;2022-08-19T05:13:56;4.70;;;4.40;;
36279;SDS011;22317;47.936;12.742;2022-08-19T05:16:24;4.85;;;4.40;;
36279;SDS011;22317;47.936;12.742;2022-08-19T05:18:51;4.75;;;4.45;;
36279;SDS011;22317;47.936;12.742;2022-08-19T05:21:35;6.07;;;4.53;;
36279;SDS011;22317;47.936;12.742;2022-08-19T05:24:21;5.55;;;5.18;;
36279;SDS011;22317;47.936;12.742;2022-08-19T05:26:49;5.25;;;4.85;;
36279;SDS011;22317;47.936;12.742;2022-08-19T05:29:17;5.18;;;4.88;;
36279;SDS011;22317;47.936;12.742;2022-08-19T05:31:45;6.57;;;5.88;;
36279;SDS011;22317;47.936;12.742;2022-08-19T05:34:14;6.13;;;4.63;;
36279;SDS011;22317;47.936;12.742;2022-08-19T05:36:42;5.15;;;4.72;;
36279;SDS011;22317;47.936;12.742;2022-08-19T05:39:11;5.70;;;4.25;;
36279;SDS011;22317;47.936;12.742;2022-08-19T05:41:42;4.55;;;4.15;;
36279;SDS011;22317;47.936;12.742;2022-08-19T05:44:09;6.00;;;5.53;;
36279;SDS011;22317;47.936;12.742;2022-08-19T05:46:36;5.30;;;4.90;;
36279;SDS011;22317;47.936;12.742;2022-08-19T05:49:06;5.13;;;4.20;;
36279;SDS011;22317;47.936;12.742;2022-08-19T05:51:33;4.45;;;4.15;;
36279;SDS011;22317;47.936;12.742;2022-08-19T05:54:01;5.00;;;4.70;;
36279;SDS011;22317;47.936;12.742;2022-08-19T05:56:27;5.03;;;4.63;;
36279;SDS011;22317;47.936;12.742;2022-08-19T05:58:56;5.13;;;4.82;;
36279;SDS011;22317;47.936;12.742;2022-08-19T06:01:23;5.20;;;4.90;;
36279;SDS011;22317;47.936;12.742;2022-08-19T06:03:50;6.05;;;5.03;;
36279;SDS011;22317;47.936;12.742;2022-08-19T06:06:17;5.63;;;5.03;;
36279;SDS011;22317;47.936;12.742;2022-08-19T06:08:43;5.15;;;4.85;;
36279;SDS011;22317;47.936;12.742;2022-08-19T06:11:31;5.38;;;4.85;;
36279;SDS011;22317;47.936;12.742;2022-08-19T06:14:07;4.55;;;4.15;;
36279;SDS011;22317;47.936;12.742;2022-08-19T06:16:35;6.03;;;5.20;;
36279;SDS011;22317;47.936;12.742;2022-08-19T06:19:04;5.00;;;4.60;;
36279;SDS011;22317;47.936;12.742;2022-08-19T06:21:38;4.82;;;4.53;;
36279;SDS011;22317;47.936;12.742;2022-08-19T06:24:07;4.55;;;4.25;;
36279;SDS011;22317;47.936;12.742;2022-08-19T06:26:35;4.20;;;3.90;;
36279;SDS011;22317;47.936;12.742;2022-08-19T06:29:03;4.78;;;4.47;;
36279;SDS011;22317;47.936;12.742;2022-08-19T06:31:32;4.53;;;4.22;;
36279;SDS011;22317;47.936;12.742;2022-08-19T06:34:00;5.03;;;4.72;;
36279;SDS011;22317;47.936;12.742;2022-08-19T06:36:34;4.40;;;4.00;;
36279;SDS011;22317;47.936;12.742;2022-08-19T06:39:06;4.53;;;4.22;;
36279;SDS011;22317;47.936;12.742;2022-08-19T06:41:40;4.75;;;4.35;;
36279;SDS011;22317;47.936;12.742;2022-08-19T06:44:15;8.35;;;7.65;;
36279;SDS011;22317;47.936;12.742;2022-08-19T06:46:42;4.40;;;4.10;;
36279;SDS011;22317;47.936;12.742;2022-08-19T06:49:09;4.25;;;4.05;;
36279;SDS011;22317;47.936;12.742;2022-08-19T06:51:39;5.43;;;5.13;;
36279;SDS011;22317;47.936;12.742;2022-08-19T06:54:09;5.20;;;4.72;;
36279;SDS011;22317;47.936;12.742;2022-08-19T06:56:35;4.55;;;4.15;;
36279;SDS011;22317;47.936;12.742;2022-08-19T06:59:07;4.10;;;3.88;;
36279;SDS011;22317;47.936;12.742;2022-08-19T07:01:36;4.72;;;4.43;;
36279;SDS011;22317;47.936;12.742;2022-08-19T07:04:07;6.07;;;5.68;;
36279;SDS011;22317;47.936;12.742;2022-08-19T07:06:34;4.57;;;4.28;;
36279;SDS011;22317;47.936;12.742;2022-08-19T07:09:01;4.75;;;4.45;;
36279;SDS011;22317;47.936;12.742;2022-08-19T07:11:28;4.65;;;4.30;;
36279;SDS011;22317;47.936;12.742;2022-08-19T07:13:53;4.55;;;4.25;;
36279;SDS011;22317;47.936;12.742;2022-08-19T07:16:20;3.83;;;3.63;;
36279;SDS011;22317;47.936;12.742;2022-08-19T07:18:47;5.47;;;5.10;;
36279;SDS011;22317;47.936;12.742;2022-08-19T07:21:18;4.75;;;3.90;;
36279;SDS011;22317;47.936;12.742;2022-08-19T07:23:49;4.20;;;3.90;;
36279;SDS011;22317;47.936;12.742;2022-08-19T07:26:27;3.88;;;3.67;;
36279;SDS011;22317;47.936;12.742;2022-08-19T07:28:57;4.68;;;4.28;;
36279;SDS011;22317;47.936;12.742;2022-08-19T07:31:25;4.03;;;3.63;;
36279;SDS011;22317;47.936;12.742;2022-08-19T07:33:53;4.10;;;3.83;;
36279;SDS011;22317;47.936;12.742;2022-08-19T07:36:24;5.15;;;4.78;;
36279;SDS011;22317;47.936;12.742;2022-08-19T07:38:55;4.05;;;3.85;;
36279;SDS011;22317;47.936;12.742;2022-08-19T07:41:23;3.97;;;3.78;;
36279;SDS011;22317;47.936;12.742;2022-08-19T07:43:50;5.47;;;5.18;;
36279;SDS011;22317;47.936;12.742;2022-08-19T07:46:17;3.75;;;3.55;;
36279;SDS011;22317;47.936;12.742;2022-08-19T07:48:45;5.47;;;5.07;;
36279;SDS011;22317;47.936;12.742;2022-08-19T07:51:14;4.28;;;3.88;;
36279;SDS011;22317;47.936;12.742;2022-08-19T07:53:45;4.43;;;4.15;;
36279;SDS011;22317;47.936;12.742;2022-08-19T07:56:13;5.53;;;5.03;;
36279;SDS011;22317;47.936;12.742;2022-08-19T07:58:41;5.63;;;5.22;;
36279;SDS011;22317;47.936;12.742;2022-08-19T08:01:09;8.63;;;5.13;;
36279;SDS011;22317;47.936;12.742;2022-08-19T08:03:37;9.27;;;5.32;;
36279;SDS011;22317;47.936;12.742;2022-08-19T08:06:21;13.80;;;5.85;;
36279;SDS011;22317;47.936;12.742;2022-08-19T08:09:05;26.58;;;6.88;;
36279;SDS011;22317;47.936;12.742;2022-08-19T08:11:41;4.45;;;4.05;;
36279;SDS011;22317;47.936;12.742;2022-08-19T08:14:20;4.30;;;4.00;;
36279;SDS011;22317;47.936;12.742;2022-08-19T08:16:49;8.50;;;7.70;;
36279;SDS011;22317;47.936;12.742;2022-08-19T08:19:17;4.10;;;3.90;;
36279;SDS011;22317;47.936;12.742;2022-08-19T08:21:45;3.10;;;3.00;;
36279;SDS011;22317;47.936;12.742;2022-08-19T08:24:12;3.35;;;3.13;;
36279;SDS011;22317;47.936;12.742;2022-08-19T08:26:39;3.50;;;3.30;;
36279;SDS011;22317;47.936;12.742;2022-08-19T08:29:06;3.05;;;2.90;;
36279;SDS011;22317;47.936;12.742;2022-08-19T08:31:35;3.85;;;2.83;;
36279;SDS011;22317;47.936;12.742;2022-08-19T08:34:01;2.80;;;2.70;;
36279;SDS011;22317;47.936;12.742;2022-08-19T08:36:27;2.45;;;2.35;;
36279;SDS011;22317;47.936;12.742;2022-08-19T08:38:53;2.60;;;2.50;;
36279;SDS011;22317;47.936;12.742;2022-08-19T08:41:22;2.80;;;2.60;;
36279;SDS011;22317;47.936;12.742;2022-08-19T08:43:58;2.33;;;2.22;;
36279;SDS011;22317;47.936;12.742;2022-08-19T08:47:10;2.67;;;2.47;;
36279;SDS011;22317;47.936;12.742;2022-08-19T08:54:47;3.38;;;2.85;;
36279;SDS011;22317;47.936;12.742;2022-08-19T08:57:18;2.92;;;2.65;;
36279;SDS011;22317;47.936;12.742;2022-08-19T08:59:52;2.85;;;2.65;;
36279;SDS011;22317;47.936;12.742;2022-08-19T09:02:22;2.63;;;2.50;;
36279;SDS011;22317;47.936;12.742;2022-08-19T09:04:47;3.40;;;3.20;;
36279;SDS011;22317;47.936;12.742;2022-08-19T09:09:52;3.65;;;3.45;;
36279;SDS011;22317;47.936;12.742;2022-08-19T09:15:10;6.22;;;4.18;;
36279;SDS011;22317;47.936;12.742;2022-08-19T09:17:38;3.28;;;3.08;;
36279;SDS011;22317;47.936;12.742;2022-08-19T09:22:33;3.47;;;3.28;;
36279;SDS011;22317;47.936;12.742;2022-08-19T09:24:59;3.70;;;3.50;;
36279;SDS011;22317;47.936;12.742;2022-08-19T09:27:25;5.45;;;4.32;;
36279;SDS011;22317;47.936;12.742;2022-08-19T09:29:51;4.32;;;3.92;;
36279;SDS011;22317;47.936;12.742;2022-08-19T09:32:19;4.65;;;4.30;;
36279;SDS011;22317;47.936;12.742;2022-08-19T09:34:45;4.13;;;3.83;;
36279;SDS011;22317;47.936;12.742;2022-08-19T09:37:11;3.85;;;3.65;;
36279;SDS011;22317;47.936;12.742;2022-08-19T09:39:38;3.70;;;3.50;;
36279;SDS011;22317;47.936;12.742;2022-08-19T09:42:05;3.50;;;3.30;;
36279;SDS011;22317;47.936;12.742;2022-08-19T09:44:40;3.33;;;3.13;;
36279;SDS011;22317;47.936;12.742;2022-08-19T09:47:07;3.55;;;3.35;;
36279;SDS011;22317;47.936;12.742;2022-08-19T09:49:34;3.63;;;2.78;;
36279;SDS011;22317;47.936;12.742;2022-08-19T09:52:00;3.28;;;3.08;;
36279;SDS011;22317;47.936;12.742;2022-08-19T09:54:26;2.58;;;2.38;;
36279;SDS011;22317;47.936;12.742;2022-08-19T09:56:53;3.03;;;2.85;;
36279;SDS011;22317;47.936;12.742;2022-08-19T09:59:20;5.45;;;4.38;;
36279;SDS011;22317;47.936;12.742;2022-08-19T10:01:46;8.00;;;7.20;;
36279;SDS011;22317;47.936;12.742;2022-08-19T10:04:12;3.80;;;3.60;;
36279;SDS011;22317;47.936;12.742;2022-08-19T10:06:38;3.35;;;3.15;;
36279;SDS011;22317;47.936;12.742;2022-08-19T10:09:06;4.07;;;3.70;;
36279;SDS011;22317;47.936;12.742;2022-08-19T10:11:33;4.97;;;4.68;;
36279;SDS011;22317;47.936;12.742;2022-08-19T10:14:00;4.50;;;4.20;;
36279;SDS011;22317;47.936;12.742;2022-08-19T10:16:26;4.30;;;4.00;;
36279;SDS011;22317;47.936;12.742;2022-08-19T10:18:53;4.80;;;4.50;;
36279;SDS011;22317;47.936;12.742;2022-08-19T10:23:49;4.53;;;4.32;;
36279;SDS011;22317;47.936;12.742;2022-08-19T10:26:17;4.70;;;4.40;;
36279;SDS011;22317;47.936;12.742;2022-08-19T10:28:45;4.57;;;4.28;;
36279;SDS011;22317;47.936;12.742;2022-08-19T10:31:18;4.30;;;4.00;;
36279;SDS011;22317;47.936;12.742;2022-08-19T10:33:48;4.60;;;4.30;;
36279;SDS011;22317;47.936;12.742;2022-08-19T10:36:18;4.70;;;4.40;;
36279;SDS011;22317;47.936;12.742;2022-08-19T10:38:49;4.70;;;4.40;;
36279;SDS011;22317;47.936;12.742;2022-08-19T10:41:17;4.90;;;4.47;;
36279;SDS011;22317;47.936;12.742;2022-08-19T10:43:44;4.53;;;4.30;;
36279;SDS011;22317;47.936;12.742;2022-08-19T10:46:17;4.53;;;4.30;;
36279;SDS011;22317;47.936;12.742;2022-08-19T10:48:43;5.78;;;5.38;;
36279;SDS011;22317;47.936;12.742;2022-08-19T10:51:10;9.55;;;8.75;;
36279;SDS011;22317;47.936;12.742;2022-08-19T10:53:55;8.38;;;7.72;;
36279;SDS011;22317;47.936;12.742;2022-08-19T10:56:21;4.60;;;4.30;;
36279;SDS011;22317;47.936;12.742;2022-08-19T10:59:06;4.05;;;3.75;;
36279;SDS011;22317;47.936;12.742;2022-08-19T11:01:32;3.83;;;3.63;;
36279;SDS011;22317;47.936;12.742;2022-08-19T11:04:00;3.50;;;3.30;;
36279;SDS011;22317;47.936;12.742;2022-08-19T11:06:28;3.78;;;3.58;;
36279;SDS011;22317;47.936;12.742;2022-08-19T11:08:55;3.00;;;2.90;;
36279;SDS011;22317;47.936;12.742;2022-08-19T11:11:21;2.97;;;2.78;;
36279;SDS011;22317;47.936;12.742;2022-08-19T11:13:48;2.80;;;2.70;;
36279;SDS011;22317;47.936;12.742;2022-08-19T11:16:16;7.32;;;6.82;;
36279;SDS011;22317;47.936;12.742;2022-08-19T11:18:49;5.13;;;4.82;;
36279;SDS011;22317;47.936;12.742;2022-08-19T11:21:19;3.70;;;3.50;;
36279;SDS011;22317;47.936;12.742;2022-08-19T11:23:51;3.45;;;3.25;;
36279;SDS011;22317;47.936;12.742;2022-08-19T11:26:19;3.30;;;3.10;;
36279;SDS011;22317;47.936;12.742;2022-08-19T11:28:46;3.60;;;3.25;;
36279;SDS011;22317;47.936;12.742;2022-08-19T11:31:15;7.25;;;6.75;;
36279;SDS011;22317;47.936;12.742;2022-08-19T11:33:43;4.63;;;4.32;;
36279;SDS011;22317;47.936;12.742;2022-08-19T11:36:11;3.10;;;2.80;;
36279;SDS011;22317;47.936;12.742;2022-08-19T11:38:37;6.00;;;5.55;;
36279;SDS011;22317;47.936;12.742;2022-08-19T11:41:04;3.22;;;3.08;;
36279;SDS011;22317;47.936;12.742;2022-08-19T11:43:34;3.25;;;3.00;;
36279;SDS011;22317;47.936;12.742;2022-08-19T11:46:04;3.38;;;2.80;;
36279;SDS011;22317;47.936;12.742;2022-08-19T11:48:32;3.08;;;2.97;;
36279;SDS011;22317;47.936;12.742;2022-08-19T11:50:58;2.92;;;2.83;;
36279;SDS011;22317;47.936;12.742;2022-08-19T11:53:24;3.20;;;3.00;;
36279;SDS011;22317;47.936;12.742;2022-08-19T11:55:50;6.03;;;5.63;;
36279;SDS011;22317;47.936;12.742;2022-08-19T11:58:21;3.38;;;3.17;;
36279;SDS011;22317;47.936;12.742;2022-08-19T12:00:47;5.68;;;5.20;;
36279;SDS011;22317;47.936;12.742;2022-08-19T12:03:13;4.93;;;4.63;;
36279;SDS011;22317;47.936;12.742;2022-08-19T12:05:39;3.88;;;3.67;;
36279;SDS011;22317;47.936;12.742;2022-08-19T12:08:06;4.10;;;3.72;;
36279;SDS011;22317;47.936;12.742;2022-08-19T12:10:33;6.43;;;5.93;;
36279;SDS011;22317;47.936;12.742;2022-08-19T12:13:00;4.80;;;4.53;;
36279;SDS011;22317;47.936;12.742;2022-08-19T12:15:26;3.90;;;3.70;;
36279;SDS011;22317;47.936;12.742;2022-08-19T12:17:54;4.05;;;3.85;;
36279;SDS011;22317;47.936;12.742;2022-08-19T12:20:22;5.53;;;3.55;;
36279;SDS011;22317;47.936;12.742;2022-08-19T12:22:49;3.30;;;3.10;;
36279;SDS011;22317;47.936;12.742;2022-08-19T12:25:15;3.13;;;3.03;;
36279;SDS011;22317;47.936;12.742;2022-08-19T12:27:41;3.88;;;3.67;;
36279;SDS011;22317;47.936;12.742;2022-08-19T12:30:08;3.53;;;3.35;;
36279;SDS011;22317;47.936;12.742;2022-08-19T12:32:37;4.97;;;4.68;;
36279;SDS011;22317;47.936;12.742;2022-08-19T12:35:03;4.30;;;4.00;;
36279;SDS011;22317;47.936;12.742;2022-08-19T12:37:30;3.70;;;3.50;;
36279;SDS011;22317;47.936;12.742;2022-08-19T12:39:57;3.15;;;2.95;;
36279;SDS011;22317;47.936;12.742;2022-08-19T12:42:24;3.20;;;2.60;;
36279;SDS011;22317;47.936;12.742;2022-08-19T12:44:49;3.40;;;3.10;;
36279;SDS011;22317;47.936;12.742;2022-08-19T12:47:17;2.88;;;2.70;;
36279;SDS011;22317;47.936;12.742;2022-08-19T12:49:43;3.15;;;2.95;;
36279;SDS011;22317;47.936;12.742;2022-08-19T12:52:09;3.05;;;2.47;;
36279;SDS011;22317;47.936;12.742;2022-08-19T12:54:36;6.35;;;4.55;;
36279;SDS011;22317;47.936;12.742;2022-08-19T12:57:06;4.45;;;4.20;;
36279;SDS011;22317;47.936;12.742;2022-08-19T12:59:34;3.22;;;2.92;;
36279;SDS011;22317;47.936;12.742;2022-08-19T13:02:01;3.28;;;2.97;;
36279;SDS011;22317;47.936;12.742;2022-08-19T13:04:31;2.90;;;2.80;;
36279;SDS011;22317;47.936;12.742;2022-08-19T13:07:00;3.00;;;2.80;;
36279;SDS011;22317;47.936;12.742;2022-08-19T13:09:26;3.28;;;3.13;;
36279;SDS011;22317;47.936;12.742;2022-08-19T13:11:51;3.05;;;2.90;;
36279;SDS011;22317;47.936;12.742;2022-08-19T13:14:17;3.80;;;3.60;;
36279;SDS011;22317;47.936;12.742;2022-08-19T13:16:43;2.70;;;2.53;;
36279;SDS011;22317;47.936;12.742;2022-08-19T13:19:09;4.43;;;4.07;;
36279;SDS011;22317;47.936;12.742;2022-08-19T13:21:37;3.72;;;3.45;;
36279;SDS011;22317;47.936;12.742;2022-08-19T13:24:02;9.80;;;3.30;;
36279;SDS011;22317;47.936;12.742;2022-08-19T13:26:28;3.28;;;3.10;;
36279;SDS011;22317;47.936;12.742;2022-08-19T13:28:54;3.95;;;3.60;;
36279;SDS011;22317;47.936;12.742;2022-08-19T13:31:39;3.97;;;3.53;;
36279;SDS011;22317;47.936;12.742;2022-08-19T13:34:34;3.65;;;3.45;;
36279;SDS011;22317;47.936;12.742;2022-08-19T13:37:02;4.30;;;4.00;;
36279;SDS011;22317;47.936;12.742;2022-08-19T13:39:29;4.57;;;4.28;;
36279;SDS011;22317;47.936;12.742;2022-08-19T13:41:57;4.97;;;4.60;;
36279;SDS011;22317;47.936;12.742;2022-08-19T13:44:25;8.13;;;3.90;;
36279;SDS011;22317;47.936;12.742;2022-08-19T13:46:55;5.07;;;4.78;;
36279;SDS011;22317;47.936;12.742;2022-08-19T13:49:27;8.25;;;7.55;;
36279;SDS011;22317;47.936;12.742;2022-08-19T13:51:56;4.70;;;4.40;;
36279;SDS011;22317;47.936;12.742;2022-08-19T13:54:22;5.95;;;5.55;;
36279;SDS011;22317;47.936;12.742;2022-08-19T13:56:47;6.22;;;5.72;;
36279;SDS011;22317;47.936;12.742;2022-08-19T13:59:13;4.53;;;4.18;;
36279;SDS011;22317;47.936;12.742;2022-08-19T14:01:39;6.43;;;5.97;;
36279;SDS011;22317;47.936;12.742;2022-08-19T14:04:06;4.10;;;3.80;;
36279;SDS011;22317;47.936;12.742;2022-08-19T14:06:33;3.80;;;3.60;;
36279;SDS011;22317;47.936;12.742;2022-08-19T14:08:59;4.70;;;4.28;;
36279;SDS011;22317;47.936;12.742;2022-08-19T14:11:27;4.03;;;3.75;;
36279;SDS011;22317;47.936;12.742;2022-08-19T14:13:53;3.97;;;3.78;;
36279;SDS011;22317;47.936;12.742;2022-08-19T14:16:19;3.60;;;3.40;;
36279;SDS011;22317;47.936;12.742;2022-08-19T14:18:46;4.20;;;3.80;;
36279;SDS011;22317;47.936;12.742;2022-08-19T14:21:22;5.28;;;4.88;;
36279;SDS011;22317;47.936;12.742;2022-08-19T14:23:50;4.30;;;4.10;;
36279;SDS011;22317;47.936;12.742;2022-08-19T14:26:17;4.80;;;4.40;;
36279;SDS011;22317;47.936;12.742;2022-08-19T14:28:44;7.45;;;6.80;;
36279;SDS011;22317;47.936;12.742;2022-08-19T14:31:11;6.15;;;5.75;;
36279;SDS011;22317;47.936;12.742;2022-08-19T14:33:41;6.65;;;6.05;;
36279;SDS011;22317;47.936;12.742;2022-08-19T14:36:07;5.32;;;5.03;;
36279;SDS011;22317;47.936;12.742;2022-08-19T14:38:33;6.65;;;6.22;;
36279;SDS011;22317;47.936;12.742;2022-08-19T14:41:09;6.85;;;6.43;;
36279;SDS011;22317;47.936;12.742;2022-08-19T14:43:35;5.18;;;4.85;;
36279;SDS011;22317;47.936;12.742;2022-08-19T14:46:01;6.00;;;5.63;;
36279;SDS011;22317;47.936;12.742;2022-08-19T14:48:27;5.72;;;5.32;;
36279;SDS011;22317;47.936;12.742;2022-08-19T14:50:52;4.28;;;3.88;;
36279;SDS011;22317;47.936;12.742;2022-08-19T14:53:18;4.15;;;3.88;;
36279;SDS011;22317;47.936;12.742;2022-08-19T14:55:44;4.47;;;4.20;;
36279;SDS011;22317;47.936;12.742;2022-08-19T14:58:11;4.00;;;3.70;;